This is the latest recevied weather packets stored in our database for station/object KF0RZX-13. If no packets are shown the sender has not sent any weather packets the latest 10 day(s).
| Time | Temp. | Humidity | Pressure | Rain* | Wind** | Luminosity | Snow |
|---|---|---|---|---|---|---|---|
| 1787751596 | 16.11° C | 100% | 1026.4 hPa | 0 mm | - | - | - |
| 1787749794 | 15° C | 100% | 1026.1 hPa | 0 mm | - | - | - |
| 1787747987 | 15° C | 100% | 1026.1 hPa | 0 mm | - | - | - |
| 1787746181 | 15° C | 100% | 1026.1 hPa | 0 mm | - | - | - |
| 1787744376 | 16.11° C | 94% | 1026.1 hPa | 0 mm | - | - | - |
| 1787742571 | 16.11° C | 94% | 1026.1 hPa | 0 mm | - | - | - |
| 1787740766 | 17.22° C | 94% | 1026.4 hPa | 0 mm | - | - | - |
| 1787738961 | 17.78° C | 83% | 1026.1 hPa | 0 mm | - | - | - |
| 1787737156 | 17.78° C | 83% | 1025.7 hPa | 0 mm | - | - | - |
| 1787735351 | 17.22° C | 94% | 1025.4 hPa | 2.03 mm | - | - | - |
| 1787733546 | 17.22° C | 94% | 1027.8 hPa | 0.25 mm | - | - | - |
| 1787731742 | 17.78° C | 83% | 1027.4 hPa | 0 mm | - | - | - |
| 1787729936 | 17.22° C | 88% | 1026.1 hPa | 0 mm | - | - | - |
| 1787728132 | 17.22° C | 88% | 1026.1 hPa | 0 mm | - | - | - |
| 1787726326 | 17.78° C | 77% | 1026.1 hPa | 0 mm | - | - | - |
| 1787724521 | 17.78° C | 83% | 1026.1 hPa | 1.02 mm | - | - | - |
| 1787722716 | 17.78° C | 77% | 1026.4 hPa | 0 mm | - | - | - |
| 1787720915 | 17.78° C | 77% | 1026.4 hPa | 0 mm | - | - | - |
| 1787719109 | 17.22° C | 88% | 1026.1 hPa | 0 mm | - | - | - |
| 1787717305 | 17.78° C | 83% | 1025.7 hPa | 0 mm | - | - | - |
| 1787715486 | 18.89° C | 68% | 1025.7 hPa | 0 mm | - | - | - |
| 1787713681 | 20° C | 68% | 1025.1 hPa | 0 mm | - | - | - |
| 1787711876 | 20° C | 64% | 1025.1 hPa | 0 mm | - | - | - |
| 1787710071 | 20° C | 64% | 1025.1 hPa | 0 mm | - | - | - |
| 1787708266 | 22.22° C | 69% | 1026.1 hPa | 0 mm | - | - | - |
* Rain latest hour (hover to see other rain measurements)
** Current wind speed in m/s (hover to see current wind gust speed)